createdAt,value
2023-12-20T00:00:24.722Z,5.69
2023-12-20T00:03:41.386Z,5.69
2023-12-20T00:06:32.233Z,5.69
2023-12-20T00:09:20.475Z,5.63
2023-12-20T00:12:08.874Z,5.69
2023-12-20T00:14:56.501Z,5.69
2023-12-20T00:17:44.726Z,5.69
2023-12-20T00:20:32.805Z,5.56
2023-12-20T00:23:21.103Z,5.44
2023-12-20T00:26:08.889Z,5.31
2023-12-20T00:28:56.800Z,5.25
2023-12-20T00:31:44.667Z,5.19
2023-12-20T00:34:32.630Z,5.13
2023-12-20T00:37:20.895Z,5.06
2023-12-20T00:40:09.638Z,5.13
2023-12-20T00:42:57.489Z,5.13
2023-12-20T00:45:45.526Z,5.00
2023-12-20T00:48:33.250Z,5.06
2023-12-20T00:51:21.408Z,5.00
2023-12-20T00:54:08.934Z,4.94
2023-12-20T00:56:56.935Z,4.94
2023-12-20T00:59:44.611Z,4.81
2023-12-20T01:02:32.154Z,4.75
2023-12-20T01:05:20.706Z,4.63
2023-12-20T01:08:08.444Z,4.56
2023-12-20T01:10:57.330Z,4.44
2023-12-20T01:13:45.176Z,4.38
2023-12-20T01:16:33.626Z,4.25
2023-12-20T01:19:21.557Z,4.13
2023-12-20T01:22:09.535Z,4.06
2023-12-20T01:24:56.951Z,4.00
2023-12-20T01:27:44.662Z,3.94
2023-12-20T01:30:33.939Z,3.88
2023-12-20T01:33:21.690Z,3.75
2023-12-20T01:36:10.053Z,3.75
2023-12-20T01:38:57.731Z,3.69
2023-12-20T01:41:47.089Z,3.69
2023-12-20T01:44:34.781Z,3.63
2023-12-20T01:47:23.471Z,3.63
2023-12-20T01:50:11.436Z,3.63
2023-12-20T01:53:02.753Z,3.63
2023-12-20T01:55:51.948Z,3.56
2023-12-20T01:58:45.272Z,3.63
2023-12-20T02:01:33.678Z,3.56
2023-12-20T02:04:21.491Z,3.56
2023-12-20T02:07:10.401Z,3.56
2023-12-20T02:09:58.359Z,3.56
2023-12-20T02:12:46.367Z,3.56
2023-12-20T02:15:34.295Z,3.63
2023-12-20T02:18:22.656Z,3.63
2023-12-20T02:21:10.993Z,3.56
2023-12-20T02:23:58.637Z,3.50
2023-12-20T02:26:47.398Z,3.56
2023-12-20T02:29:36.516Z,3.63
2023-12-20T02:32:28.805Z,3.69
2023-12-20T02:35:16.694Z,3.69
2023-12-20T02:38:04.419Z,3.75
2023-12-20T02:40:52.148Z,3.81
2023-12-20T02:43:40.037Z,3.81
2023-12-20T02:46:27.995Z,3.81
2023-12-20T02:49:15.891Z,3.81
2023-12-20T02:52:04.277Z,3.75
2023-12-20T02:54:52.523Z,3.69
2023-12-20T02:57:43.577Z,3.63
2023-12-20T03:00:31.432Z,3.63
2023-12-20T03:03:19.452Z,3.63
2023-12-20T03:06:07.330Z,3.63
2023-12-20T03:08:55.215Z,3.69
2023-12-20T03:11:42.905Z,3.75
2023-12-20T03:14:30.902Z,3.75
2023-12-20T03:17:20.008Z,3.75
2023-12-20T03:20:09.099Z,3.69
2023-12-20T03:22:57.090Z,3.69
2023-12-20T03:25:44.466Z,3.63
2023-12-20T03:28:32.173Z,3.56
2023-12-20T03:31:21.058Z,3.63
2023-12-20T03:34:08.798Z,3.63
2023-12-20T03:36:56.580Z,3.56
2023-12-20T03:39:44.607Z,3.50
2023-12-20T03:42:32.668Z,3.44
2023-12-20T03:45:20.299Z,3.38
2023-12-20T03:48:08.530Z,3.31
2023-12-20T03:50:56.639Z,3.31
2023-12-20T03:53:44.395Z,3.25
2023-12-20T03:56:32.155Z,3.19
2023-12-20T03:59:20.214Z,3.19
2023-12-20T04:02:08.068Z,3.19
2023-12-20T04:04:56.008Z,3.19
2023-12-20T04:07:43.631Z,3.19
2023-12-20T04:10:31.406Z,3.19
2023-12-20T04:13:19.677Z,3.19
2023-12-20T04:16:07.653Z,3.06
2023-12-20T04:18:55.532Z,3.06
2023-12-20T04:21:43.184Z,3.06
2023-12-20T04:24:30.698Z,3.06
2023-12-20T04:27:18.251Z,3.06
2023-12-20T04:30:06.843Z,3.06
2023-12-20T04:32:54.896Z,3.00
2023-12-20T04:35:43.980Z,2.94
2023-12-20T04:38:31.928Z,2.94
2023-12-20T04:41:20.265Z,2.94
2023-12-20T04:44:08.514Z,2.94
2023-12-20T04:46:57.761Z,2.94
2023-12-20T04:49:45.453Z,2.94
2023-12-20T04:52:33.411Z,2.88
2023-12-20T04:55:21.709Z,2.88
2023-12-20T04:58:09.573Z,2.88
2023-12-20T05:00:57.734Z,2.88
2023-12-20T05:03:45.477Z,2.88
2023-12-20T05:06:33.246Z,2.81
2023-12-20T05:09:21.467Z,2.81
2023-12-20T05:12:09.428Z,2.88
2023-12-20T05:14:57.758Z,2.81
2023-12-20T05:17:46.047Z,2.88
2023-12-20T05:20:33.741Z,2.88
2023-12-20T05:23:21.749Z,2.88
2023-12-20T05:26:09.423Z,2.81
2023-12-20T05:28:57.152Z,2.94
2023-12-20T05:31:44.834Z,2.94
2023-12-20T05:34:33.130Z,2.88
2023-12-20T05:37:21.095Z,2.81
2023-12-20T05:40:12.801Z,2.75
2023-12-20T05:43:00.762Z,2.88
2023-12-20T05:45:48.648Z,2.88
2023-12-20T05:48:36.783Z,2.81
2023-12-20T05:51:24.791Z,2.88
2023-12-20T05:54:12.557Z,2.81
2023-12-20T05:57:01.915Z,2.75
2023-12-20T05:59:49.607Z,2.69
2023-12-20T06:02:40.279Z,2.69
2023-12-20T06:05:28.236Z,2.63
2023-12-20T06:08:16.117Z,2.69
2023-12-20T06:11:03.985Z,2.63
2023-12-20T06:13:54.308Z,2.69
2023-12-20T06:16:42.143Z,2.69
2023-12-20T06:19:29.918Z,2.75
2023-12-20T06:22:17.773Z,2.69
2023-12-20T06:25:06.664Z,2.69
2023-12-20T06:27:54.699Z,2.75
2023-12-20T06:30:42.552Z,2.81
2023-12-20T06:33:32.228Z,2.75
2023-12-20T06:36:19.800Z,2.75
2023-12-20T06:39:07.849Z,2.63
2023-12-20T06:41:55.801Z,2.63
2023-12-20T06:44:43.401Z,2.50
2023-12-20T06:47:31.245Z,2.50
2023-12-20T06:50:18.793Z,2.38
2023-12-20T06:53:08.374Z,2.31
2023-12-20T06:55:57.589Z,2.31
2023-12-20T06:58:45.852Z,2.19
2023-12-20T07:01:33.546Z,2.19
2023-12-20T07:04:23.407Z,2.31
2023-12-20T07:07:11.652Z,2.44
2023-12-20T07:09:59.723Z,2.44
2023-12-20T07:12:47.782Z,2.56
2023-12-20T07:15:37.032Z,2.44
2023-12-20T07:18:25.333Z,2.38
2023-12-20T07:21:13.353Z,2.31
2023-12-20T07:24:01.116Z,2.25
2023-12-20T07:26:48.988Z,2.13
2023-12-20T07:29:37.115Z,2.13
2023-12-20T07:32:25.097Z,2.13
2023-12-20T07:35:13.210Z,2.19
2023-12-20T07:38:01.325Z,2.19
2023-12-20T07:40:49.212Z,2.19
2023-12-20T07:43:36.838Z,2.25
2023-12-20T07:46:24.933Z,2.25
2023-12-20T07:49:15.607Z,2.25
2023-12-20T07:52:03.732Z,2.25
2023-12-20T07:54:51.663Z,2.25
2023-12-20T07:57:39.405Z,2.31
2023-12-20T08:00:28.102Z,2.31
2023-12-20T08:03:15.854Z,2.38
2023-12-20T08:06:04.633Z,2.44
2023-12-20T08:08:58.702Z,2.56
2023-12-20T08:11:50.678Z,2.56
2023-12-20T08:14:41.429Z,2.56
2023-12-20T08:17:32.304Z,2.63
2023-12-20T08:20:23.436Z,2.69
2023-12-20T08:23:18.136Z,2.88
2023-12-20T08:26:07.853Z,3.06
2023-12-20T08:28:56.785Z,3.25
2023-12-20T08:31:46.166Z,3.50
2023-12-20T08:34:34.058Z,3.75
2023-12-20T08:37:21.988Z,4.06
2023-12-20T08:40:10.341Z,5.13
2023-12-20T08:42:58.056Z,7.06
2023-12-20T08:45:46.112Z,7.94
2023-12-20T08:48:34.125Z,9.44
2023-12-20T08:51:23.981Z,10.31
2023-12-20T08:54:14.215Z,8.63
2023-12-20T08:57:01.940Z,6.06
2023-12-20T08:59:49.905Z,5.50
2023-12-20T09:02:38.968Z,4.56
2023-12-20T09:05:27.730Z,4.38
2023-12-20T09:08:15.408Z,4.25
2023-12-20T09:11:03.157Z,4.06
2023-12-20T09:13:52.370Z,4.13
2023-12-20T09:16:40.209Z,4.19
2023-12-20T09:19:27.922Z,4.25
2023-12-20T09:22:16.107Z,4.44
2023-12-20T09:25:04.328Z,4.88
2023-12-20T09:27:53.782Z,5.38
2023-12-20T09:30:41.941Z,6.25
2023-12-20T09:33:29.946Z,6.00
2023-12-20T09:36:37.318Z,4.75
2023-12-20T09:39:25.346Z,4.38
2023-12-20T09:42:18.468Z,4.63
2023-12-20T09:45:10.932Z,4.63
2023-12-20T09:47:59.945Z,4.81
2023-12-20T09:50:51.835Z,4.94
2023-12-20T09:53:43.310Z,5.00
2023-12-20T09:56:32.113Z,5.13
2023-12-20T09:59:20.094Z,5.13
2023-12-20T10:02:15.591Z,4.75
2023-12-20T10:05:05.387Z,4.69
2023-12-20T10:07:53.547Z,4.44
2023-12-20T10:10:45.670Z,4.38
2023-12-20T10:13:42.357Z,4.19
2023-12-20T10:16:31.465Z,4.25
2023-12-20T10:19:19.763Z,4.13
2023-12-20T10:22:07.776Z,4.00
2023-12-20T10:24:57.670Z,4.06
2023-12-20T10:27:45.644Z,4.00
2023-12-20T10:30:33.140Z,3.94
2023-12-20T10:33:33.714Z,4.00
2023-12-20T10:36:22.855Z,4.00
2023-12-20T10:39:12.701Z,3.94
2023-12-20T10:42:00.872Z,3.94
2023-12-20T10:44:48.748Z,3.94
2023-12-20T10:47:38.902Z,3.94
2023-12-20T10:50:30.333Z,4.00
2023-12-20T10:53:18.038Z,4.06
2023-12-20T10:56:09.368Z,4.06
2023-12-20T10:59:02.611Z,4.06
2023-12-20T11:01:52.127Z,4.06
2023-12-20T11:04:46.312Z,4.13
2023-12-20T11:07:51.960Z,4.13
2023-12-20T11:11:07.594Z,4.13
2023-12-20T11:14:03.328Z,4.19
2023-12-20T11:16:55.401Z,4.25
2023-12-20T11:19:58.950Z,4.19
2023-12-20T11:22:57.496Z,4.25
2023-12-20T11:25:52.805Z,4.31
2023-12-20T11:28:41.074Z,4.31
2023-12-20T11:31:29.065Z,4.38
2023-12-20T11:34:18.939Z,4.31
2023-12-20T11:37:08.590Z,4.38
2023-12-20T11:39:58.100Z,4.38
2023-12-20T11:42:51.002Z,4.38
2023-12-20T11:45:50.735Z,4.44
2023-12-20T11:48:45.456Z,4.31
2023-12-20T11:51:33.450Z,4.38
2023-12-20T11:54:21.342Z,4.19
2023-12-20T11:57:08.980Z,4.19
2023-12-20T11:59:57.292Z,4.19
2023-12-20T12:02:46.811Z,4.31
2023-12-20T12:05:37.411Z,4.31
2023-12-20T12:08:25.641Z,4.19
2023-12-20T12:11:13.338Z,4.13
2023-12-20T12:14:02.192Z,4.25
2023-12-20T12:16:51.678Z,4.19
2023-12-20T12:19:41.114Z,4.13
2023-12-20T12:22:29.192Z,4.13
2023-12-20T12:25:17.204Z,4.06
2023-12-20T12:28:05.459Z,4.06
2023-12-20T12:31:00.612Z,3.94
2023-12-20T12:33:48.954Z,4.00
2023-12-20T12:36:37.185Z,4.06
2023-12-20T12:39:28.410Z,4.06
2023-12-20T12:42:16.135Z,4.06
2023-12-20T12:45:04.675Z,4.00
2023-12-20T12:47:52.466Z,4.06
2023-12-20T12:50:39.966Z,4.00
2023-12-20T12:53:30.482Z,4.00
2023-12-20T12:56:18.273Z,3.94
2023-12-20T12:59:06.939Z,4.00
2023-12-20T13:01:55.028Z,4.00
2023-12-20T13:04:44.325Z,3.94
2023-12-20T13:07:32.510Z,3.88
2023-12-20T13:10:20.354Z,3.94
2023-12-20T13:13:08.826Z,3.88
2023-12-20T13:15:56.609Z,3.94
2023-12-20T13:18:44.710Z,3.94
2023-12-20T13:21:32.734Z,3.88
2023-12-20T13:24:20.612Z,3.88
2023-12-20T13:27:08.361Z,3.94
2023-12-20T13:29:55.783Z,4.00
2023-12-20T13:32:43.831Z,3.94
2023-12-20T13:35:32.220Z,3.94
2023-12-20T13:38:20.675Z,3.94
2023-12-20T13:41:08.388Z,4.00
2023-12-20T13:43:56.359Z,4.00
2023-12-20T13:46:44.560Z,4.00
2023-12-20T13:49:32.838Z,3.94
2023-12-20T13:52:20.582Z,3.94
2023-12-20T13:55:09.596Z,3.88
2023-12-20T13:57:59.084Z,3.88
2023-12-20T14:00:47.646Z,3.88
2023-12-20T14:03:35.658Z,3.81
2023-12-20T14:06:23.420Z,3.81
2023-12-20T14:09:15.207Z,3.75
2023-12-20T14:12:02.865Z,3.69
2023-12-20T14:14:50.734Z,3.69
2023-12-20T14:17:40.452Z,3.69
2023-12-20T14:20:28.145Z,3.63
2023-12-20T14:23:15.962Z,3.56
2023-12-20T14:26:04.780Z,3.44
2023-12-20T14:28:52.320Z,3.50
2023-12-20T14:31:41.438Z,3.44
2023-12-20T14:34:29.431Z,3.50
2023-12-20T14:37:18.325Z,3.56
2023-12-20T14:40:17.662Z,3.63
2023-12-20T14:43:05.571Z,3.69
2023-12-20T14:45:54.536Z,3.69
2023-12-20T14:48:42.832Z,3.75
2023-12-20T14:51:30.707Z,3.81
2023-12-20T14:54:18.181Z,3.75
2023-12-20T14:57:06.484Z,3.75
2023-12-20T14:59:54.126Z,3.75
2023-12-20T15:02:42.461Z,3.69
2023-12-20T15:05:30.583Z,3.69
2023-12-20T15:08:18.474Z,3.69
2023-12-20T15:11:06.466Z,3.69
2023-12-20T15:13:57.420Z,3.69
2023-12-20T15:16:45.244Z,3.63
2023-12-20T15:19:33.756Z,3.63
2023-12-20T15:22:21.690Z,3.56
2023-12-20T15:25:10.065Z,3.56
2023-12-20T15:27:58.228Z,3.56
2023-12-20T15:30:46.129Z,4.69
2023-12-20T15:33:34.122Z,3.94
2023-12-20T15:36:22.014Z,3.63
2023-12-20T15:39:09.947Z,3.63
2023-12-20T15:41:58.135Z,3.63
2023-12-20T15:44:45.822Z,3.69
2023-12-20T15:47:37.260Z,3.69
2023-12-20T15:50:25.869Z,3.56
2023-12-20T15:53:13.889Z,3.50
2023-12-20T15:56:02.622Z,3.50
2023-12-20T15:58:52.779Z,3.19
2023-12-20T16:01:40.879Z,3.00
2023-12-20T16:04:32.201Z,2.94
2023-12-20T16:07:20.792Z,2.94
2023-12-20T16:10:08.912Z,2.88
2023-12-20T16:12:56.999Z,2.88
2023-12-20T16:15:44.973Z,2.81
2023-12-20T16:18:34.036Z,2.75
2023-12-20T16:21:21.860Z,2.75
2023-12-20T16:24:09.888Z,2.69
2023-12-20T16:26:57.560Z,2.69
2023-12-20T16:29:45.342Z,2.63
2023-12-20T16:32:33.928Z,2.56
2023-12-20T16:35:21.749Z,2.56
2023-12-20T16:38:09.346Z,2.56
2023-12-20T16:40:57.157Z,2.56
2023-12-20T16:43:44.853Z,2.63
2023-12-20T16:46:33.144Z,2.63
2023-12-20T16:49:22.576Z,2.56
2023-12-20T16:52:10.471Z,2.56
2023-12-20T16:54:59.297Z,2.56
2023-12-20T16:57:47.447Z,2.56
2023-12-20T17:00:35.558Z,2.50
2023-12-20T17:03:25.916Z,2.50
2023-12-20T17:06:13.781Z,3.00
2023-12-20T17:09:01.807Z,2.81
2023-12-20T17:11:49.351Z,2.75
2023-12-20T17:14:37.480Z,2.75
2023-12-20T17:17:25.465Z,2.81
2023-12-20T17:20:13.390Z,2.81
2023-12-20T17:23:01.165Z,2.94
2023-12-20T17:25:48.836Z,2.88
2023-12-20T17:28:36.645Z,2.94
2023-12-20T17:31:24.965Z,2.88
2023-12-20T17:34:14.025Z,2.81
2023-12-20T17:37:02.026Z,2.81
2023-12-20T17:39:50.000Z,2.81
2023-12-20T17:42:37.839Z,2.69
2023-12-20T17:45:26.201Z,2.56
2023-12-20T17:48:14.413Z,2.50
2023-12-20T17:51:02.815Z,2.50
2023-12-20T17:53:51.263Z,2.44
2023-12-20T17:56:38.794Z,2.56
2023-12-20T17:59:26.653Z,2.56
2023-12-20T18:02:14.228Z,2.50
2023-12-20T18:05:02.208Z,2.38
2023-12-20T18:07:53.153Z,2.25
2023-12-20T18:10:40.805Z,2.19
2023-12-20T18:13:31.481Z,2.13
2023-12-20T18:16:19.602Z,2.06
2023-12-20T18:19:07.921Z,2.06
2023-12-20T18:21:56.342Z,2.06
2023-12-20T18:24:44.311Z,1.94
2023-12-20T18:27:32.397Z,1.69
2023-12-20T18:30:20.428Z,1.44
2023-12-20T18:33:08.149Z,1.31
2023-12-20T18:35:56.313Z,1.25
2023-12-20T18:38:46.683Z,1.19
2023-12-20T18:41:34.533Z,1.19
2023-12-20T18:44:22.205Z,1.25
2023-12-20T18:47:10.255Z,1.44
2023-12-20T18:49:58.327Z,1.50
2023-12-20T18:52:47.232Z,1.63
2023-12-20T18:55:35.118Z,1.69
2023-12-20T18:58:25.015Z,1.75
2023-12-20T19:01:12.969Z,1.88
2023-12-20T19:04:01.289Z,1.94
2023-12-20T19:06:50.633Z,1.94
2023-12-20T19:09:38.486Z,1.94
2023-12-20T19:12:26.207Z,1.94
2023-12-20T19:15:14.227Z,1.94
2023-12-20T19:18:01.979Z,1.88
2023-12-20T19:20:50.525Z,1.69
2023-12-20T19:23:38.424Z,1.44
2023-12-20T19:26:25.925Z,1.31
2023-12-20T19:29:13.801Z,1.19
2023-12-20T19:32:01.330Z,1.25
2023-12-20T19:34:49.114Z,1.13
2023-12-20T19:37:36.931Z,1.50
2023-12-20T19:40:24.705Z,1.13
2023-12-20T19:43:12.574Z,1.06
2023-12-20T19:46:00.586Z,1.06
2023-12-20T19:48:48.390Z,1.13
2023-12-20T19:51:37.164Z,1.19
2023-12-20T19:54:25.806Z,1.25
2023-12-20T19:57:15.698Z,1.31
2023-12-20T20:00:06.076Z,1.31
2023-12-20T20:02:59.881Z,1.31
2023-12-20T20:05:47.921Z,1.38
2023-12-20T20:08:36.247Z,1.44
2023-12-20T20:11:33.026Z,1.50
2023-12-20T20:14:28.267Z,1.56
2023-12-20T20:17:17.513Z,1.69
2023-12-20T20:20:07.580Z,1.69
2023-12-20T20:22:55.781Z,1.63
2023-12-20T20:25:43.891Z,1.69
2023-12-20T20:28:32.078Z,1.69
2023-12-20T20:31:20.142Z,1.69
2023-12-20T20:34:08.239Z,1.69
2023-12-20T20:36:56.745Z,1.75
2023-12-20T20:39:46.509Z,1.88
2023-12-20T20:42:35.817Z,1.94
2023-12-20T20:45:24.126Z,1.94
2023-12-20T20:48:21.401Z,1.94
2023-12-20T20:51:15.389Z,1.88
2023-12-20T20:54:11.907Z,1.75
2023-12-20T20:57:06.045Z,1.69
2023-12-20T20:59:53.806Z,1.56
2023-12-20T21:02:41.904Z,1.44
2023-12-20T21:05:30.645Z,1.31
2023-12-20T21:08:18.417Z,1.25
2023-12-20T21:11:06.483Z,1.19
2023-12-20T21:13:54.754Z,1.19
2023-12-20T21:16:42.777Z,1.13
2023-12-20T21:19:30.996Z,1.19
2023-12-20T21:22:18.666Z,1.19
2023-12-20T21:25:09.965Z,1.13
2023-12-20T21:27:57.797Z,1.31
2023-12-20T21:30:46.133Z,1.38
2023-12-20T21:33:34.386Z,1.50
2023-12-20T21:36:22.457Z,1.63
2023-12-20T21:39:11.297Z,1.63
2023-12-20T21:41:59.450Z,1.50
2023-12-20T21:44:47.206Z,1.13
2023-12-20T21:47:35.046Z,0.88
2023-12-20T21:50:23.364Z,0.69
2023-12-20T21:53:12.573Z,0.75
2023-12-20T21:56:00.296Z,0.81
2023-12-20T21:58:47.806Z,0.81
2023-12-20T22:01:41.368Z,0.94
2023-12-20T22:04:29.060Z,1.00
2023-12-20T22:07:17.447Z,1.13
2023-12-20T22:10:06.689Z,1.13
2023-12-20T22:12:54.830Z,1.06
2023-12-20T22:15:42.870Z,1.00
2023-12-20T22:18:30.875Z,0.81
2023-12-20T22:21:18.525Z,0.75
2023-12-20T22:24:06.810Z,0.56
2023-12-20T22:26:56.617Z,0.50
2023-12-20T22:29:44.233Z,0.50
2023-12-20T22:32:32.113Z,0.44
2023-12-20T22:35:20.677Z,0.38
2023-12-20T22:38:08.235Z,0.44
2023-12-20T22:40:55.985Z,0.38
2023-12-20T22:43:43.932Z,0.38
2023-12-20T22:46:31.810Z,0.38
2023-12-20T22:49:20.460Z,0.38
2023-12-20T22:52:08.142Z,0.31
2023-12-20T22:54:56.958Z,0.25
2023-12-20T22:57:44.982Z,0.19
2023-12-20T23:00:32.932Z,0.25
2023-12-20T23:03:26.244Z,0.25
2023-12-20T23:06:14.132Z,0.25
2023-12-20T23:09:01.698Z,0.25
2023-12-20T23:11:51.074Z,0.19
2023-12-20T23:14:39.314Z,0.25
2023-12-20T23:17:27.245Z,0.25
2023-12-20T23:20:15.051Z,0.25
2023-12-20T23:23:02.992Z,0.25
2023-12-20T23:25:52.535Z,0.31
2023-12-20T23:28:41.650Z,0.38
2023-12-20T23:31:29.786Z,0.50
2023-12-20T23:34:17.723Z,0.44
2023-12-20T23:37:06.200Z,0.50
2023-12-20T23:39:54.184Z,0.50
2023-12-20T23:42:41.870Z,0.50
2023-12-20T23:45:30.054Z,0.50
2023-12-20T23:48:17.943Z,0.50
2023-12-20T23:51:05.733Z,0.50
2023-12-20T23:53:53.705Z,0.44
2023-12-20T23:56:41.306Z,0.44
2023-12-20T23:59:30.148Z,0.44
